createdAt,value
2022-10-11T00:00:03.773Z,17.80
2022-10-11T00:03:08.387Z,23.17
2022-10-11T00:06:11.473Z,34.75
2022-10-11T00:09:15.284Z,45.55
2022-10-11T00:12:18.257Z,44.42
2022-10-11T00:15:22.574Z,40.83
2022-10-11T00:18:26.009Z,33.80
2022-10-11T00:21:28.991Z,35.10
2022-10-11T00:24:32.045Z,34.55
2022-10-11T00:27:36.396Z,27.85
2022-10-11T00:30:44.293Z,24.90
2022-10-11T00:33:48.051Z,27.33
2022-10-11T00:36:51.183Z,27.20
2022-10-11T00:39:54.848Z,25.25
2022-10-11T00:42:57.811Z,25.30
2022-10-11T00:46:08.214Z,25.30
2022-10-11T00:49:20.346Z,26.30
2022-10-11T00:52:34.661Z,23.58
2022-10-11T00:55:42.502Z,24.57
2022-10-11T00:58:45.586Z,24.80
2022-10-11T01:01:48.655Z,28.38
2022-10-11T01:05:11.459Z,29.60
2022-10-11T01:08:15.652Z,29.05
2022-10-11T01:11:21.992Z,30.25
2022-10-11T01:14:38.852Z,28.50
2022-10-11T01:17:50.593Z,28.13
2022-10-11T01:20:57.054Z,29.38
2022-10-11T01:24:08.665Z,29.23
2022-10-11T01:27:26.973Z,28.52
2022-10-11T01:30:35.144Z,28.90
2022-10-11T01:33:46.312Z,24.70
2022-10-11T01:37:02.398Z,24.42
2022-10-11T01:40:05.615Z,23.17
2022-10-11T01:43:10.820Z,20.63
2022-10-11T01:46:14.372Z,19.17
2022-10-11T01:49:17.387Z,20.15
2022-10-11T01:52:20.483Z,19.73
2022-10-11T01:55:39.138Z,21.67
2022-10-11T01:59:01.479Z,20.73
2022-10-11T02:02:22.650Z,20.15
2022-10-11T02:05:43.706Z,21.13
2022-10-11T02:09:08.268Z,20.13
2022-10-11T02:12:14.080Z,20.80
2022-10-11T02:15:18.300Z,19.98
2022-10-11T02:18:27.493Z,19.65
2022-10-11T02:21:31.823Z,20.65
2022-10-11T02:24:39.033Z,20.58
2022-10-11T02:27:45.635Z,17.83
2022-10-11T02:30:51.576Z,16.85
2022-10-11T02:34:19.455Z,15.60
2022-10-11T02:37:42.019Z,16.60
2022-10-11T02:40:49.419Z,17.92
2022-10-11T02:44:10.182Z,18.98
2022-10-11T02:47:14.817Z,19.15
2022-10-11T02:50:18.509Z,19.38
2022-10-11T02:53:22.305Z,19.60
2022-10-11T02:56:25.411Z,20.23
2022-10-11T02:59:28.526Z,20.80
2022-10-11T03:02:31.527Z,21.85
2022-10-11T03:05:41.004Z,21.48
2022-10-11T03:08:43.902Z,19.70
2022-10-11T03:11:47.007Z,23.23
2022-10-11T03:14:50.110Z,22.75
2022-10-11T03:17:53.253Z,22.00
2022-10-11T03:20:56.420Z,22.05
2022-10-11T03:23:59.524Z,21.90
2022-10-11T03:27:02.501Z,22.40
2022-10-11T03:30:06.407Z,23.15
2022-10-11T03:33:09.366Z,23.30
2022-10-11T03:36:12.354Z,23.10
2022-10-11T03:39:15.446Z,22.85
2022-10-11T03:42:18.434Z,20.27
2022-10-11T03:45:21.387Z,20.95
2022-10-11T03:48:24.690Z,17.42
2022-10-11T03:51:27.859Z,16.85
2022-10-11T03:54:30.838Z,20.00
2022-10-11T03:57:34.033Z,26.08
2022-10-11T04:00:37.952Z,25.35
2022-10-11T04:03:41.047Z,18.98
2022-10-11T04:06:44.146Z,17.55
2022-10-11T04:09:47.163Z,17.67
2022-10-11T04:12:50.201Z,17.67
2022-10-11T04:15:53.291Z,15.48
2022-10-11T04:18:56.408Z,15.13
2022-10-11T04:21:59.405Z,15.50
2022-10-11T04:25:02.399Z,15.68
2022-10-11T04:28:05.587Z,14.57
2022-10-11T04:31:08.671Z,13.82
2022-10-11T04:34:11.761Z,12.95
2022-10-11T04:37:14.958Z,13.55
2022-10-11T04:40:18.032Z,13.63
2022-10-11T04:43:21.522Z,12.82
2022-10-11T04:46:25.050Z,13.55
2022-10-11T04:49:28.110Z,12.85
2022-10-11T04:52:31.268Z,12.90
2022-10-11T04:55:34.355Z,12.15
2022-10-11T04:58:38.517Z,12.55
2022-10-11T05:01:41.554Z,10.93
2022-10-11T05:04:44.621Z,12.80
2022-10-11T05:07:47.849Z,11.75
2022-10-11T05:11:02.203Z,12.40
2022-10-11T05:14:05.186Z,12.37
2022-10-11T05:17:08.390Z,12.50
2022-10-11T05:20:13.243Z,11.30
2022-10-11T05:23:16.437Z,12.85
2022-10-11T05:26:20.812Z,10.82
2022-10-11T05:29:24.813Z,11.20
2022-10-11T05:32:28.163Z,12.03
2022-10-11T05:35:31.305Z,11.25
2022-10-11T05:38:34.383Z,12.02
2022-10-11T05:41:37.696Z,10.95
2022-10-11T05:44:40.869Z,10.70
2022-10-11T05:47:43.882Z,10.48
2022-10-11T05:50:46.846Z,10.68
2022-10-11T05:53:49.947Z,10.65
2022-10-11T05:56:53.060Z,9.43
2022-10-11T05:59:56.118Z,10.27
2022-10-11T06:02:59.229Z,8.93
2022-10-11T06:06:06.039Z,7.90
2022-10-11T06:09:09.254Z,8.18
2022-10-11T06:12:12.387Z,7.95
2022-10-11T06:15:15.550Z,7.82
2022-10-11T06:18:18.618Z,6.65
2022-10-11T06:21:22.512Z,7.13
2022-10-11T06:24:25.563Z,6.90
2022-10-11T06:27:28.660Z,6.60
2022-10-11T06:30:31.913Z,6.97
2022-10-11T06:33:35.892Z,6.28
2022-10-11T06:36:38.947Z,6.50
2022-10-11T06:39:42.023Z,6.90
2022-10-11T06:42:50.371Z,5.47
2022-10-11T06:45:53.419Z,5.47
2022-10-11T06:48:57.073Z,4.43
2022-10-11T06:52:00.223Z,5.03
2022-10-11T06:55:03.256Z,5.05
2022-10-11T06:58:06.330Z,4.88
2022-10-11T07:01:17.187Z,5.78
2022-10-11T07:04:20.243Z,6.78
2022-10-11T07:07:23.270Z,5.07
2022-10-11T07:10:26.290Z,5.53
2022-10-11T07:13:29.499Z,4.20
2022-10-11T07:16:32.504Z,4.43
2022-10-11T07:19:35.520Z,3.45
2022-10-11T07:22:38.572Z,4.82
2022-10-11T07:25:41.618Z,4.40
2022-10-11T07:28:45.365Z,3.95
2022-10-11T07:31:48.490Z,3.60
2022-10-11T07:34:51.617Z,3.70
2022-10-11T07:37:54.659Z,3.15
2022-10-11T07:40:58.395Z,3.97
2022-10-11T07:44:01.887Z,3.78
2022-10-11T07:47:08.953Z,3.15
2022-10-11T07:50:14.692Z,3.30
2022-10-11T07:53:17.867Z,3.28
2022-10-11T07:56:24.640Z,3.83
2022-10-11T07:59:27.669Z,3.53
2022-10-11T08:02:30.835Z,3.33
2022-10-11T08:05:34.857Z,3.10
2022-10-11T08:08:38.761Z,6.00
2022-10-11T08:11:41.848Z,3.25
2022-10-11T08:14:44.962Z,3.63
2022-10-11T08:17:48.362Z,3.17
2022-10-11T08:20:51.683Z,3.58
2022-10-11T08:23:54.626Z,3.60
2022-10-11T08:26:57.679Z,4.10
2022-10-11T08:30:01.889Z,3.60
2022-10-11T08:33:08.602Z,3.42
2022-10-11T08:36:13.560Z,5.78
2022-10-11T08:39:16.930Z,3.88
2022-10-11T08:42:32.048Z,8.55
2022-10-11T08:45:49.767Z,9.05
2022-10-11T08:48:53.290Z,5.78
2022-10-11T08:52:11.046Z,5.78
2022-10-11T08:55:27.352Z,7.05
2022-10-11T08:59:05.274Z,4.85
2022-10-11T09:03:06.310Z,4.28
2022-10-11T09:06:30.327Z,4.47
2022-10-11T09:09:48.335Z,5.10
2022-10-11T09:13:34.736Z,7.95
2022-10-11T09:16:46.478Z,3.78
2022-10-11T09:20:07.809Z,3.30
2022-10-11T09:23:48.082Z,3.38
2022-10-11T09:27:00.377Z,2.72
2022-10-11T09:30:15.083Z,3.00
2022-10-11T09:33:22.060Z,2.17
2022-10-11T09:36:56.990Z,2.80
2022-10-11T09:40:25.606Z,2.80
2022-10-11T09:43:28.855Z,3.20
2022-10-11T09:46:46.717Z,2.17
2022-10-11T09:50:02.179Z,2.55
2022-10-11T09:53:05.946Z,2.40
2022-10-11T09:56:09.816Z,2.55
2022-10-11T09:59:34.535Z,3.03
2022-10-11T10:02:49.531Z,4.10
2022-10-11T10:06:10.069Z,3.78
2022-10-11T10:09:31.163Z,3.60
2022-10-11T10:12:34.238Z,6.07
2022-10-11T10:15:38.704Z,6.43
2022-10-11T10:18:52.205Z,4.68
2022-10-11T10:21:56.982Z,5.03
2022-10-11T10:25:07.845Z,6.00
2022-10-11T10:28:37.835Z,6.95
2022-10-11T10:35:45.237Z,7.18
2022-10-11T10:39:02.195Z,6.43
2022-10-11T10:42:14.906Z,6.30
2022-10-11T10:45:21.795Z,6.45
2022-10-11T10:52:47.868Z,5.88
2022-10-11T10:56:06.376Z,5.72
2022-10-11T10:59:46.824Z,5.10
2022-10-11T11:03:12.971Z,4.05
2022-10-11T11:06:37.252Z,4.05
2022-10-11T11:09:55.852Z,5.03
2022-10-11T11:13:33.834Z,9.48
2022-10-11T11:17:06.857Z,6.68
2022-10-11T11:20:50.854Z,6.72
2022-10-11T11:24:30.074Z,4.93
2022-10-11T11:27:51.602Z,5.82
2022-10-11T11:31:07.898Z,4.00
2022-10-11T11:34:44.641Z,3.95
2022-10-11T11:37:48.928Z,2.85
2022-10-11T11:40:58.224Z,3.90
2022-10-11T11:44:11.795Z,3.65
2022-10-11T11:47:40.884Z,3.15
2022-10-11T11:50:47.437Z,6.25
2022-10-11T11:54:09.920Z,4.70
2022-10-11T11:57:35.866Z,4.45
2022-10-11T12:01:08.147Z,4.60
2022-10-11T12:04:31.448Z,9.23
2022-10-11T12:07:49.692Z,8.95
2022-10-11T12:10:56.469Z,7.18
2022-10-11T12:14:01.527Z,8.00
2022-10-11T12:17:25.852Z,7.10
2022-10-11T12:20:33.371Z,13.68
2022-10-11T12:23:42.539Z,8.88
2022-10-11T12:26:47.469Z,10.13
2022-10-11T12:33:14.009Z,10.80
2022-10-11T12:36:30.854Z,9.10
2022-10-11T12:40:04.454Z,8.63
2022-10-11T12:43:16.674Z,8.90
2022-10-11T12:46:31.916Z,8.60
2022-10-11T12:53:04.257Z,10.73
2022-10-11T12:56:12.644Z,8.35
2022-10-11T12:59:22.726Z,9.77
2022-10-11T13:02:37.871Z,12.35
2022-10-11T13:05:50.987Z,10.38
2022-10-11T13:09:33.297Z,10.80
2022-10-11T13:12:42.454Z,12.85
2022-10-11T13:15:46.184Z,11.55
2022-10-11T13:18:51.781Z,12.35
2022-10-11T13:21:58.395Z,11.73
2022-10-11T13:25:06.928Z,11.75
2022-10-11T13:28:10.828Z,11.63
2022-10-11T13:31:13.891Z,10.70
2022-10-11T13:34:22.371Z,10.32
2022-10-11T13:37:28.813Z,10.23
2022-10-11T13:40:32.687Z,9.68
2022-10-11T13:43:36.857Z,9.00
2022-10-11T13:46:41.771Z,10.52
2022-10-11T13:53:00.952Z,11.43
2022-10-11T13:56:08.897Z,10.90
2022-10-11T13:59:20.477Z,10.48
2022-10-11T14:02:24.882Z,11.77
2022-10-11T14:05:36.061Z,11.98
2022-10-11T14:08:45.314Z,11.85
2022-10-11T14:11:48.836Z,9.45
2022-10-11T14:14:52.108Z,9.10
2022-10-11T14:17:55.351Z,7.32
2022-10-11T14:20:58.437Z,6.40
2022-10-11T14:24:11.343Z,5.20
2022-10-11T14:27:24.891Z,5.63
2022-10-11T14:30:29.017Z,5.70
2022-10-11T14:33:32.055Z,5.72
2022-10-11T14:36:35.455Z,4.90
2022-10-11T14:39:38.617Z,5.50
2022-10-11T14:42:45.366Z,5.68
2022-10-11T14:45:48.395Z,4.95
2022-10-11T14:48:56.281Z,5.72
2022-10-11T14:52:00.292Z,5.22
2022-10-11T14:55:04.581Z,5.47
2022-10-11T14:58:09.219Z,8.25
2022-10-11T15:01:16.960Z,5.80
2022-10-11T15:04:25.495Z,5.88
2022-10-11T15:07:28.491Z,5.38
2022-10-11T15:10:42.213Z,9.90
2022-10-11T15:13:45.879Z,8.10
2022-10-11T15:16:48.945Z,6.47
2022-10-11T15:19:52.025Z,6.70
2022-10-11T15:22:56.469Z,6.20
2022-10-11T15:25:59.518Z,7.90
2022-10-11T15:29:02.693Z,5.40
2022-10-11T15:32:05.794Z,4.75
2022-10-11T15:35:09.241Z,3.83
2022-10-11T15:38:21.313Z,3.25
2022-10-11T15:41:24.658Z,3.80
2022-10-11T15:44:27.865Z,3.85
2022-10-11T15:47:30.860Z,4.05
2022-10-11T15:50:37.965Z,3.50
2022-10-11T15:53:41.313Z,3.20
2022-10-11T15:56:44.329Z,3.28
2022-10-11T15:59:47.389Z,3.40
2022-10-11T16:02:55.122Z,3.83
2022-10-11T16:06:04.676Z,4.13
2022-10-11T16:09:08.390Z,4.50
2022-10-11T16:12:12.263Z,3.83
2022-10-11T16:15:16.085Z,3.85
2022-10-11T16:18:21.662Z,4.15
2022-10-11T16:21:24.844Z,3.97
2022-10-11T16:24:29.123Z,4.32
2022-10-11T16:27:32.845Z,5.18
2022-10-11T16:30:39.380Z,4.18
2022-10-11T16:33:48.642Z,4.55
2022-10-11T16:36:51.630Z,4.93
2022-10-11T16:39:54.656Z,4.07
2022-10-11T16:42:57.827Z,4.13
2022-10-11T16:46:00.772Z,3.78
2022-10-11T16:49:04.360Z,4.38
2022-10-11T16:52:07.459Z,4.80
2022-10-11T16:55:12.192Z,4.25
2022-10-11T16:58:15.269Z,4.03
2022-10-11T17:01:19.830Z,4.40
2022-10-11T17:04:23.308Z,4.03
2022-10-11T17:07:26.936Z,4.05
2022-10-11T17:10:39.854Z,3.92
2022-10-11T17:13:42.926Z,3.72
2022-10-11T17:16:46.119Z,4.22
2022-10-11T17:19:50.840Z,4.05
2022-10-11T17:22:54.076Z,4.50
2022-10-11T17:25:57.343Z,4.57
2022-10-11T17:29:02.808Z,5.10
2022-10-11T17:32:06.075Z,8.25
2022-10-11T17:35:09.240Z,5.20
2022-10-11T17:38:12.249Z,4.30
2022-10-11T17:41:16.838Z,4.10
2022-10-11T17:44:20.320Z,4.00
2022-10-11T17:47:23.294Z,3.85
2022-10-11T17:50:26.398Z,4.13
2022-10-11T17:53:29.378Z,3.58
2022-10-11T17:56:36.768Z,3.80
2022-10-11T17:59:40.879Z,3.10
2022-10-11T18:02:43.937Z,3.03
2022-10-11T18:05:46.947Z,4.03
2022-10-11T18:08:52.168Z,3.10
2022-10-11T18:11:55.464Z,1.98
2022-10-11T18:14:58.394Z,2.42
2022-10-11T18:18:01.459Z,2.72
2022-10-11T18:21:04.578Z,2.38
2022-10-11T18:24:12.155Z,2.95
2022-10-11T18:27:15.138Z,2.75
2022-10-11T18:30:18.188Z,2.63
2022-10-11T18:33:21.155Z,2.67
2022-10-11T18:36:26.745Z,2.80
2022-10-11T18:39:29.858Z,2.65
2022-10-11T18:42:32.879Z,2.35
2022-10-11T18:45:35.849Z,2.55
2022-10-11T18:48:42.697Z,2.90
2022-10-11T18:51:46.203Z,3.22
2022-10-11T18:54:49.125Z,3.08
2022-10-11T18:57:52.201Z,2.60
2022-10-11T19:00:55.379Z,2.25
2022-10-11T19:04:00.486Z,1.98
2022-10-11T19:07:03.846Z,2.50
2022-10-11T19:10:07.355Z,2.60
2022-10-11T19:13:10.312Z,1.95
2022-10-11T19:16:18.953Z,2.05
2022-10-11T19:19:27.637Z,1.42
2022-10-11T19:22:30.691Z,1.90
2022-10-11T19:25:37.562Z,2.20
2022-10-11T19:28:40.595Z,3.05
2022-10-11T19:31:46.147Z,1.90
2022-10-11T19:34:49.150Z,1.60
2022-10-11T19:37:52.171Z,1.70
2022-10-11T19:40:55.264Z,1.58
2022-10-11T19:44:01.285Z,1.73
2022-10-11T19:47:05.509Z,1.60
2022-10-11T19:50:09.027Z,1.60
2022-10-11T19:53:12.010Z,2.30
2022-10-11T19:56:17.622Z,1.90
2022-10-11T19:59:22.514Z,1.75
2022-10-11T20:05:28.335Z,1.90
2022-10-11T20:08:32.030Z,3.15
2022-10-11T20:11:35.069Z,2.53
2022-10-11T20:14:38.105Z,2.00
2022-10-11T20:17:50.501Z,2.10
2022-10-11T20:20:55.431Z,1.92
2022-10-11T20:27:04.992Z,1.70
2022-10-11T20:30:08.391Z,1.73
2022-10-11T20:33:11.469Z,1.70
2022-10-11T20:36:22.479Z,2.22
2022-10-11T20:39:25.912Z,1.95
2022-10-11T20:42:29.922Z,1.60
2022-10-11T20:45:33.116Z,1.70
2022-10-11T20:48:37.651Z,1.80
2022-10-11T20:51:42.265Z,2.63
2022-10-11T20:54:45.250Z,2.92
2022-10-11T20:57:48.240Z,2.50
2022-10-11T21:00:58.207Z,2.50
2022-10-11T21:04:02.731Z,2.47
2022-10-11T21:07:05.653Z,2.10
2022-10-11T21:10:08.815Z,2.40
2022-10-11T21:13:11.781Z,2.28
2022-10-11T21:16:16.724Z,1.80
2022-10-11T21:22:22.564Z,2.30
2022-10-11T21:25:25.525Z,5.32
2022-10-11T21:28:28.541Z,3.65
2022-10-11T21:31:34.285Z,3.30
2022-10-11T21:34:37.536Z,3.90
2022-10-11T21:37:40.644Z,4.05
2022-10-11T21:40:43.616Z,3.00
2022-10-11T21:43:47.739Z,2.53
2022-10-11T21:47:07.491Z,2.50
2022-10-11T21:50:11.237Z,2.08
2022-10-11T21:53:14.189Z,2.00
2022-10-11T21:56:17.244Z,2.25
2022-10-11T21:59:20.225Z,2.47
2022-10-11T22:02:23.268Z,2.38
2022-10-11T22:05:26.261Z,2.47
2022-10-11T22:08:29.367Z,2.70
2022-10-11T22:11:32.665Z,2.80
2022-10-11T22:14:35.735Z,3.40
2022-10-11T22:17:38.759Z,3.80
2022-10-11T22:20:42.066Z,3.97
2022-10-11T22:23:47.583Z,2.85
2022-10-11T22:26:50.560Z,3.08
2022-10-11T22:29:53.543Z,2.88
2022-10-11T22:32:56.920Z,2.63
2022-10-11T22:36:02.259Z,3.13
2022-10-11T22:39:08.452Z,3.58
2022-10-11T22:42:11.503Z,4.13
2022-10-11T22:45:14.616Z,3.92
2022-10-11T22:48:17.719Z,3.80
2022-10-11T22:51:20.733Z,2.75
2022-10-11T22:54:23.825Z,2.90
2022-10-11T22:57:26.836Z,2.50
2022-10-11T23:00:29.939Z,2.50
2022-10-11T23:03:33.033Z,3.90
2022-10-11T23:06:36.246Z,3.05
2022-10-11T23:09:39.346Z,3.65
2022-10-11T23:12:42.396Z,5.45
2022-10-11T23:15:45.553Z,4.78
2022-10-11T23:18:48.589Z,4.60
2022-10-11T23:21:51.741Z,4.68
2022-10-11T23:24:54.772Z,4.68
2022-10-11T23:28:00.107Z,3.30
2022-10-11T23:31:09.279Z,4.00
2022-10-11T23:34:12.235Z,4.03
2022-10-11T23:37:15.291Z,4.20
2022-10-11T23:40:18.507Z,4.18
2022-10-11T23:43:21.559Z,5.40
2022-10-11T23:46:24.592Z,5.10
2022-10-11T23:49:27.607Z,4.25
2022-10-11T23:52:30.725Z,3.78
2022-10-11T23:55:33.746Z,4.03
2022-10-11T23:58:37.089Z,3.42
